Time;durP1;ratioP1;P1;durP2;ratioP2;P2;SDS_P1;SDS_P2;PMS_P1;PMS_P2;Temp;Humidity;BMP_temperature;BMP_pressure;BME280_temperature;BME280_humidity;BME280_pressure;Samples;Min_cycle;Max_cycle;Signal;HPM_P1;HPM_P2
2023/04/28 00:00:48;;;;;;;8.73;4.57;;;;;;;9.85;86.84;101257.97;5060285;28;20064;-44
2023/04/28 00:03:13;;;;;;;6.00;4.57;;;;;;;9.91;87.44;101258.31;5051871;28;20444;-41
2023/04/28 00:05:40;;;;;;;14.38;4.30;;;;;;;9.85;86.53;101247.22;5052301;28;20099;-41
2023/04/28 00:08:05;;;;;;;6.53;4.40;;;;;;;9.85;85.13;101247.22;5051908;28;20473;-47
2023/04/28 00:10:31;;;;;;;8.98;4.80;;;;;;;9.81;87.65;101245.84;5054433;28;20024;-42
2023/04/28 00:12:56;;;;;;;6.85;4.50;;;;;;;9.84;86.46;101245.53;5069919;28;20036;-42
2023/04/28 00:15:22;;;;;;;7.32;4.53;;;;;;;9.81;86.64;101247.72;5069559;28;20045;-41
2023/04/28 00:17:47;;;;;;;5.97;4.78;;;;;;;9.76;87.38;101240.16;5071311;28;20052;-41
2023/04/28 00:20:13;;;;;;;10.20;4.55;;;;;;;9.74;88.62;101241.31;5066337;28;20035;-42
2023/04/28 00:22:38;;;;;;;9.20;4.95;;;;;;;9.79;88.17;101233.59;5050131;28;20079;-42
2023/04/28 00:25:05;;;;;;;6.15;4.43;;;;;;;9.79;88.38;101223.69;5069838;28;20039;-39
2023/04/28 00:27:32;;;;;;;6.47;4.18;;;;;;;9.81;88.71;101208.22;5048274;28;20364;-42
2023/04/28 00:29:57;;;;;;;12.95;5.13;;;;;;;9.88;88.67;101205.72;5066358;28;20021;-41
2023/04/28 00:32:23;;;;;;;8.63;4.63;;;;;;;9.77;87.70;101209.59;5070283;28;20043;-41
2023/04/28 00:34:49;;;;;;;11.18;5.07;;;;;;;9.79;88.32;101202.16;5056537;28;20484;-41
2023/04/28 00:37:14;;;;;;;9.00;5.03;;;;;;;9.76;88.96;101201.69;5049279;28;20071;-44
2023/04/28 00:39:40;;;;;;;7.28;4.90;;;;;;;9.76;88.96;101196.31;5050199;28;20085;-40
2023/04/28 00:42:06;;;;;;;10.15;5.00;;;;;;;9.73;88.33;101189.41;5049334;28;20121;-42
2023/04/28 00:44:31;;;;;;;8.73;4.60;;;;;;;9.82;88.62;101187.56;5053799;28;20105;-43
2023/04/28 00:46:58;;;;;;;9.50;5.07;;;;;;;9.76;88.35;101178.31;5069053;28;20040;-42
2023/04/28 00:49:24;;;;;;;8.98;4.90;;;;;;;9.72;89.34;101179.69;5070026;28;20024;-41
2023/04/28 00:51:49;;;;;;;8.80;4.85;;;;;;;9.73;89.00;101178.66;5055749;28;20074;-41
2023/04/28 00:54:15;;;;;;;9.77;5.15;;;;;;;9.71;89.84;101169.09;5055964;28;20044;-40
2023/04/28 00:56:42;;;;;;;8.15;5.30;;;;;;;9.61;89.52;101171.94;5052695;28;20040;-42
2023/04/28 00:59:07;;;;;;;9.40;4.93;;;;;;;9.60;90.56;101162.19;5070217;28;20155;-40
2023/04/28 01:01:34;;;;;;;7.95;4.75;;;;;;;9.67;91.05;101158.69;5068774;28;20143;-42
2023/04/28 01:04:01;;;;;;;13.07;5.70;;;;;;;9.70;90.83;101154.81;5068403;28;20039;-40
2023/04/28 01:06:27;;;;;;;12.15;5.28;;;;;;;9.70;91.51;101153.97;5069210;28;20023;-41
2023/04/28 01:08:53;;;;;;;12.27;5.32;;;;;;;9.74;90.17;101149.94;5069072;28;20384;-46
2023/04/28 01:11:18;;;;;;;9.07;4.78;;;;;;;9.76;89.60;101142.53;5070245;28;20067;-44
2023/04/28 01:13:44;;;;;;;11.48;5.25;;;;;;;9.82;89.70;101148.09;5038317;28;20049;-42
2023/04/28 01:16:10;;;;;;;8.40;4.82;;;;;;;9.78;90.32;101133.31;5051913;28;20033;-42
2023/04/28 01:18:35;;;;;;;8.90;5.50;;;;;;;9.81;91.07;101138.34;5049086;28;20079;-42
2023/04/28 01:21:02;;;;;;;8.52;4.68;;;;;;;9.81;90.05;101130.28;5050509;28;20441;-41
2023/04/28 01:23:28;;;;;;;9.77;5.40;;;;;;;9.81;89.70;101127.56;5059681;28;20060;-42
2023/04/28 01:25:53;;;;;;;12.82;5.05;;;;;;;9.80;89.69;101128.59;5069578;28;20074;-43
2023/04/28 01:28:18;;;;;;;8.63;4.97;;;;;;;9.76;88.96;101132.63;5070508;28;20033;-44
2023/04/28 01:30:45;;;;;;;8.23;5.20;;;;;;;9.80;89.35;101127.78;5064515;28;20509;-42
2023/04/28 01:33:11;;;;;;;8.50;5.90;;;;;;;9.75;89.25;101125.59;5050318;28;20452;-42
2023/04/28 01:35:36;;;;;;;9.57;5.70;;;;;;;9.73;89.71;101111.47;5048627;28;20102;-41
2023/04/28 01:38:01;;;;;;;8.52;4.90;;;;;;;9.74;89.77;101102.41;5050374;28;20454;-46
2023/04/28 01:40:27;;;;;;;9.13;5.00;;;;;;;9.71;88.97;101093.84;5049924;28;20116;-42
2023/04/28 01:42:53;;;;;;;7.72;5.15;;;;;;;9.65;90.01;101103.41;5050196;28;20037;-43
2023/04/28 01:45:18;;;;;;;12.15;5.45;;;;;;;9.64;90.70;101101.75;5050257;28;20036;-46
2023/04/28 01:47:44;;;;;;;9.85;5.10;;;;;;;9.65;90.36;101109.63;5063245;28;20123;-45
2023/04/28 01:50:11;;;;;;;8.20;5.15;;;;;;;9.61;91.16;101102.94;5069966;28;20111;-42
2023/04/28 01:52:37;;;;;;;9.80;5.55;;;;;;;9.67;90.50;101090.66;5058343;28;20084;-44
2023/04/28 01:55:02;;;;;;;8.65;5.05;;;;;;;9.62;90.55;101080.41;5057444;28;20112;-44
2023/04/28 01:57:28;;;;;;;7.28;5.38;;;;;;;9.59;90.85;101074.53;5031860;28;20096;-44
2023/04/28 01:59:53;;;;;;;8.27;5.32;;;;;;;9.59;91.21;101077.22;5050291;28;20443;-41
2023/04/28 02:02:19;;;;;;;10.02;5.53;;;;;;;9.57;92.07;101076.56;5066167;28;20440;-45
2023/04/28 02:04:45;;;;;;;11.00;5.63;;;;;;;9.57;92.76;101076.56;5049001;28;20040;-45
2023/04/28 02:07:11;;;;;;;8.73;4.85;;;;;;;9.56;92.63;101078.41;5049199;28;20033;-42
2023/04/28 02:09:37;;;;;;;12.13;5.10;;;;;;;9.56;93.43;101082.94;5063743;28;20040;-40
2023/04/28 02:12:02;;;;;;;11.52;5.93;;;;;;;9.60;93.13;101077.03;5062982;28;20522;-41
2023/04/28 02:14:31;;;;;;;7.57;5.45;;;;;;;9.58;93.30;101067.47;5050183;28;20065;-40
2023/04/28 02:16:57;;;;;;;9.65;5.75;;;;;;;9.60;93.29;101062.78;5048568;28;20352;-41
2023/04/28 02:19:24;;;;;;;7.28;5.25;;;;;;;9.63;93.05;101062.44;5049468;28;20029;-43
2023/04/28 02:21:49;;;;;;;12.52;5.45;;;;;;;9.62;93.72;101063.44;5051209;28;20041;-42
2023/04/28 02:24:15;;;;;;;8.80;5.57;;;;;;;9.50;93.95;101060.25;5051251;28;20473;-40
2023/04/28 02:26:40;;;;;;;9.23;5.68;;;;;;;9.45;94.51;101060.78;5068945;28;20087;-42
2023/04/28 02:29:06;;;;;;;11.30;5.75;;;;;;;9.53;94.43;101051.03;5060136;28;20033;-41
2023/04/28 02:31:32;;;;;;;6.82;5.10;;;;;;;9.56;94.61;101050.72;5048589;28;20120;-41
2023/04/28 02:33:59;;;;;;;8.63;5.28;;;;;;;9.51;95.05;101058.44;5049928;28;20025;-43
2023/04/28 02:36:24;;;;;;;10.23;5.50;;;;;;;9.49;95.67;101052.38;5049564;28;20037;-44
2023/04/28 02:38:49;;;;;;;10.15;5.80;;;;;;;9.55;95.18;101046.31;5049462;28;20082;-41
2023/04/28 02:41:15;;;;;;;10.82;5.88;;;;;;;9.51;95.74;101045.84;5055186;28;20032;-43
2023/04/28 02:43:41;;;;;;;8.20;5.47;;;;;;;9.52;96.58;101039.44;5069403;28;20061;-46
2023/04/28 02:46:07;;;;;;;11.30;5.15;;;;;;;9.53;96.02;101040.28;5064971;28;20033;-42
2023/04/28 02:48:34;;;;;;;9.88;5.70;;;;;;;9.47;96.03;101040.97;5066771;28;20032;-41
2023/04/28 02:51:00;;;;;;;11.88;6.05;;;;;;;9.47;96.29;101035.59;5069368;28;20024;-44
2023/04/28 02:53:27;;;;;;;10.30;5.72;;;;;;;9.50;97.09;101030.72;5068976;28;20048;-40
2023/04/28 02:55:53;;;;;;;9.27;5.28;;;;;;;9.56;96.71;101023.84;5069369;28;20043;-42
2023/04/28 02:58:18;;;;;;;11.85;5.13;;;;;;;9.53;96.68;101025.03;5068976;28;20029;-42
2023/04/28 03:00:44;;;;;;;11.73;5.78;;;;;;;9.52;97.49;101025.19;5051173;28;20033;-40
2023/04/28 03:03:09;;;;;;;12.45;6.40;;;;;;;9.55;97.53;101022.13;5055412;28;20063;-41
2023/04/28 03:05:35;;;;;;;9.07;6.03;;;;;;;9.54;96.70;101021.31;5072474;28;20039;-44
2023/04/28 03:08:00;;;;;;;9.48;5.85;;;;;;;9.44;97.11;101013.41;5071688;28;20174;-41
2023/04/28 03:10:26;;;;;;;11.38;5.93;;;;;;;9.46;97.94;101015.94;5071355;28;21067;-41
2023/04/28 03:12:51;;;;;;;12.40;6.05;;;;;;;9.51;98.16;101012.75;5055184;28;20044;-41
2023/04/28 03:15:16;;;;;;;9.32;6.07;;;;;;;9.46;98.38;100994.47;5055890;28;20360;-41
2023/04/28 03:17:43;;;;;;;10.80;5.93;;;;;;;9.39;98.05;100988.09;5055417;28;20040;-41
2023/04/28 03:20:09;;;;;;;13.57;5.97;;;;;;;9.47;98.71;100992.59;5036396;28;20375;-40
2023/04/28 03:22:34;;;;;;;12.82;5.97;;;;;;;9.39;98.99;100996.16;5069837;28;20063;-41
2023/04/28 03:25:00;;;;;;;13.85;6.55;;;;;;;9.36;99.34;100994.63;5071498;28;20466;-45
2023/04/28 03:27:26;;;;;;;12.13;5.68;;;;;;;9.38;99.85;100989.94;5072082;28;20120;-43
2023/04/28 03:29:51;;;;;;;9.52;6.07;;;;;;;9.49;99.24;100990.59;5071042;28;20063;-42
2023/04/28 03:32:16;;;;;;;9.65;6.25;;;;;;;9.41;99.51;100986.06;5060427;28;20033;-46
2023/04/28 03:34:42;;;;;;;11.65;6.05;;;;;;;9.40;100.00;100985.25;5051642;28;20775;-41
2023/04/28 03:37:08;;;;;;;8.98;6.05;;;;;;;9.37;100.00;100982.91;5070256;28;20048;-41
2023/04/28 03:39:33;;;;;;;12.13;6.32;;;;;;;9.35;100.00;100981.41;5040547;28;20045;-40
2023/04/28 03:41:59;;;;;;;10.48;6.55;;;;;;;9.23;100.00;100983.56;5052303;28;20132;-42
2023/04/28 03:44:25;;;;;;;15.23;6.80;;;;;;;9.16;100.00;100979.88;5056409;28;20035;-43
2023/04/28 03:46:50;;;;;;;14.48;6.90;;;;;;;9.25;100.00;100968.13;5051028;28;20029;-44
2023/04/28 03:49:16;;;;;;;10.55;6.22;;;;;;;9.23;100.00;100954.03;5052970;28;20047;-44
2023/04/28 03:51:41;;;;;;;13.23;6.38;;;;;;;9.32;100.00;100946.78;5071637;28;20036;-41
2023/04/28 03:54:07;;;;;;;13.88;6.85;;;;;;;9.20;100.00;100943.63;5070018;28;20482;-44
2023/04/28 03:56:33;;;;;;;13.95;7.15;;;;;;;9.23;100.00;100937.91;5068928;28;20481;-43
2023/04/28 03:58:58;;;;;;;14.20;6.93;;;;;;;9.16;100.00;100936.91;5070772;28;20020;-41
2023/04/28 04:01:24;;;;;;;22.23;6.93;;;;;;;9.25;100.00;100945.81;5070790;28;20827;-43
2023/04/28 04:03:49;;;;;;;12.18;6.72;;;;;;;9.21;100.00;100950.69;5069604;28;20040;-43
2023/04/28 04:06:15;;;;;;;13.60;6.68;;;;;;;9.19;100.00;100947.34;5071102;28;20722;-42
2023/04/28 04:08:40;;;;;;;12.77;6.57;;;;;;;9.20;100.00;100949.00;5070429;28;20358;-42
2023/04/28 04:11:06;;;;;;;11.30;6.72;;;;;;;9.15;100.00;100935.25;5069811;28;20044;-42
2023/04/28 04:13:32;;;;;;;13.60;6.68;;;;;;;9.10;100.00;100935.75;5071855;28;20031;-43
2023/04/28 04:15:58;;;;;;;10.13;6.32;;;;;;;9.07;100.00;100949.53;5053551;28;20024;-42
2023/04/28 04:18:23;;;;;;;10.75;6.65;;;;;;;9.05;100.00;100950.69;5053278;28;20025;-44
2023/04/28 04:20:49;;;;;;;12.05;6.70;;;;;;;9.01;100.00;100950.22;5055994;28;20482;-43
2023/04/28 04:23:14;;;;;;;17.92;7.68;;;;;;;8.96;100.00;100953.41;5050224;28;20028;-42
2023/04/28 04:25:40;;;;;;;14.15;7.53;;;;;;;9.02;100.00;100941.97;5065734;28;20083;-41
2023/04/28 04:28:05;;;;;;;12.05;7.50;;;;;;;8.95;100.00;100951.72;5070045;28;20116;-40
2023/04/28 04:30:31;;;;;;;17.23;8.57;;;;;;;8.91;100.00;100961.13;5050130;28;20379;-41
2023/04/28 04:32:56;;;;;;;12.55;8.23;;;;;;;8.79;100.00;100957.06;5051121;28;20040;-42
2023/04/28 04:35:21;;;;;;;13.48;8.15;;;;;;;8.77;100.00;100973.38;5060443;28;20035;-42
2023/04/28 04:37:47;;;;;;;10.38;7.63;;;;;;;8.66;100.00;100962.09;5068417;28;20044;-43
2023/04/28 04:40:12;;;;;;;16.40;7.90;;;;;;;8.63;100.00;100959.75;5070335;28;20035;-42
2023/04/28 04:42:37;;;;;;;17.40;7.85;;;;;;;8.60;100.00;100954.72;5062881;28;20124;-45
2023/04/28 04:45:05;;;;;;;15.00;8.48;;;;;;;8.52;100.00;100955.56;5061234;28;20086;-43
2023/04/28 04:47:30;;;;;;;14.07;8.90;;;;;;;8.46;100.00;100950.88;5071016;28;20143;-40
2023/04/28 04:49:56;;;;;;;14.65;8.25;;;;;;;8.51;100.00;100941.31;5068517;28;20366;-42
2023/04/28 04:52:21;;;;;;;13.60;7.90;;;;;;;8.55;100.00;100934.59;5064713;28;20060;-42
2023/04/28 04:54:46;;;;;;;17.05;8.20;;;;;;;8.49;100.00;100927.22;5052508;28;20033;-43
2023/04/28 04:57:12;;;;;;;14.98;8.70;;;;;;;8.51;100.00;100927.06;5050781;28;20084;-46
2023/04/28 04:59:37;;;;;;;15.57;8.02;;;;;;;8.51;100.00;100933.25;5061219;28;20040;-41
2023/04/28 05:02:02;;;;;;;15.85;9.07;;;;;;;8.49;100.00;100935.28;5056122;28;20100;-41
2023/04/28 05:04:28;;;;;;;17.98;8.68;;;;;;;8.45;100.00;100939.31;5068725;28;20032;-43
2023/04/28 05:06:53;;;;;;;13.00;8.23;;;;;;;8.26;100.00;100934.19;5070897;28;20044;-41
2023/04/28 05:09:19;;;;;;;14.43;8.63;;;;;;;8.18;100.00;100918.09;5058837;28;20048;-43
2023/04/28 05:11:44;;;;;;;13.95;9.40;;;;;;;7.99;100.00;100917.38;5065848;28;20485;-43
2023/04/28 05:14:10;;;;;;;14.10;9.50;;;;;;;7.85;100.00;100920.69;5067056;28;20078;-44
2023/04/28 05:16:37;;;;;;;15.95;9.68;;;;;;;7.76;100.00;100910.94;5071160;28;20063;-44
2023/04/28 05:19:02;;;;;;;19.52;9.90;;;;;;;7.74;100.00;100918.28;5071285;28;20534;-44
2023/04/28 05:21:28;;;;;;;17.85;9.85;;;;;;;7.60;100.00;100919.75;5066198;28;20126;-42
2023/04/28 05:23:53;;;;;;;15.77;9.32;;;;;;;7.50;100.00;100927.88;5052148;28;20037;-43
2023/04/28 05:26:18;;;;;;;17.02;9.80;;;;;;;7.53;100.00;100932.94;5061870;28;20052;-43
2023/04/28 05:28:44;;;;;;;19.45;10.05;;;;;;;7.46;100.00;100922.03;5065404;28;20033;-40
2023/04/28 05:31:09;;;;;;;16.15;9.77;;;;;;;7.47;100.00;100923.69;5057355;28;20041;-41
2023/04/28 05:33:35;;;;;;;19.95;9.85;;;;;;;7.48;100.00;100924.56;5053035;28;20447;-44
2023/04/28 05:36:00;;;;;;;19.30;10.85;;;;;;;7.51;100.00;100924.22;5061707;28;20547;-41
2023/04/28 05:38:26;;;;;;;20.70;10.90;;;;;;;7.44;100.00;100933.91;5050282;28;20104;-41
2023/04/28 05:40:51;;;;;;;16.70;10.77;;;;;;;7.52;100.00;100936.59;5051708;28;20020;-41
2023/04/28 05:43:17;;;;;;;19.42;10.73;;;;;;;7.53;100.00;100932.09;5050708;28;20119;-41
2023/04/28 05:45:43;;;;;;;22.10;11.48;;;;;;;7.62;100.00;100934.66;5054410;28;20359;-43
2023/04/28 05:48:08;;;;;;;19.25;11.23;;;;;;;7.72;100.00;100931.03;5069645;28;20028;-46
2023/04/28 05:50:34;;;;;;;19.88;10.70;;;;;;;7.80;100.00;100944.47;5066713;28;20077;-45
2023/04/28 05:53:00;;;;;;;18.27;10.75;;;;;;;7.83;100.00;100939.59;5069613;28;20044;-42
2023/04/28 05:55:25;;;;;;;18.58;11.50;;;;;;;7.81;100.00;100935.41;5064016;28;20424;-40
2023/04/28 05:57:52;;;;;;;19.67;10.60;;;;;;;7.89;100.00;100946.97;5051140;28;20025;-45
2023/04/28 06:00:20;;;;;;;18.25;11.70;;;;;;;7.90;100.00;100931.78;5051383;28;20037;-45
2023/04/28 06:02:45;;;;;;;19.38;11.15;;;;;;;7.93;100.00;100939.47;5051429;28;20017;-40
2023/04/28 06:05:11;;;;;;;17.90;11.68;;;;;;;7.89;100.00;100932.75;5051406;28;20044;-41
2023/04/28 06:07:36;;;;;;;16.17;10.18;;;;;;;7.97;100.00;100937.31;5051697;28;20051;-43
2023/04/28 06:10:02;;;;;;;17.00;10.82;;;;;;;7.94;100.00;100941.16;5051434;28;20362;-44
2023/04/28 06:12:29;;;;;;;16.10;10.10;;;;;;;8.02;100.00;100935.81;5052072;28;20470;-44
2023/04/28 06:14:54;;;;;;;18.77;10.88;;;;;;;8.07;100.00;100938.84;5033689;28;20025;-42
2023/04/28 06:17:20;;;;;;;14.35;10.57;;;;;;;8.00;100.00;100934.28;5053860;28;20044;-46
2023/04/28 06:19:45;;;;;;;21.67;11.95;;;;;;;8.07;100.00;100925.44;5051465;28;20441;-42
2023/04/28 06:22:11;;;;;;;17.65;12.20;;;;;;;8.09;100.00;100923.44;5052200;28;20033;-41
2023/04/28 06:24:37;;;;;;;19.75;11.57;;;;;;;7.96;100.00;100917.72;5056336;28;20075;-40
2023/04/28 06:27:02;;;;;;;20.30;12.65;;;;;;;8.00;100.00;100927.09;5059466;28;20061;-41
2023/04/28 06:29:28;;;;;;;21.55;12.40;;;;;;;7.91;100.00;100930.75;5060337;28;20033;-43
2023/04/28 06:31:56;;;;;;;22.60;13.27;;;;;;;7.96;100.00;100932.94;5060506;28;20021;-42
2023/04/28 06:34:26;;;;;;;23.63;13.52;;;;;;;8.03;100.00;100925.91;5072586;28;20040;-44
2023/04/28 06:36:53;;;;;;;23.92;13.57;;;;;;;7.95;100.00;100929.41;5062593;28;20458;-48
2023/04/28 06:39:21;;;;;;;27.65;14.35;;;;;;;8.05;100.00;100932.78;5064780;28;20457;-41
2023/04/28 06:41:46;;;;;;;26.33;14.93;;;;;;;8.04;100.00;100936.50;5072430;28;20028;-44
2023/04/28 06:44:12;;;;;;;26.73;13.98;;;;;;;8.06;100.00;100939.03;5055646;28;20036;-43
2023/04/28 06:46:37;;;;;;;28.65;14.23;;;;;;;8.12;100.00;100936.50;5053066;28;20592;-42
2023/04/28 06:49:03;;;;;;;23.02;14.93;;;;;;;8.18;100.00;100932.31;5036535;28;20402;-46
2023/04/28 06:51:31;;;;;;;27.63;15.30;;;;;;;8.18;100.00;100934.19;5054724;28;20029;-41
2023/04/28 06:53:57;;;;;;;29.50;15.27;;;;;;;8.25;100.00;100935.22;5055311;28;20044;-45
2023/04/28 06:56:23;;;;;;;22.55;14.45;;;;;;;8.28;100.00;100932.19;5053049;28;20104;-46
2023/04/28 06:58:48;;;;;;;27.15;15.93;;;;;;;8.46;100.00;100937.44;5040206;28;20074;-46
2023/04/28 07:01:14;;;;;;;32.78;15.93;;;;;;;8.49;100.00;100937.13;5061365;28;20091;-42
2023/04/28 07:03:39;;;;;;;30.38;16.35;;;;;;;8.42;100.00;100938.78;5054647;28;20104;-42
2023/04/28 07:06:05;;;;;;;29.05;16.10;;;;;;;8.47;100.00;100941.81;5065849;28;20067;-42
2023/04/28 07:08:30;;;;;;;30.85;16.75;;;;;;;8.51;100.00;100937.78;5069689;28;20033;-42
2023/04/28 07:10:56;;;;;;;35.03;17.48;;;;;;;8.52;100.00;100939.47;5053604;28;20052;-43
2023/04/28 07:13:21;;;;;;;35.70;18.48;;;;;;;8.60;100.00;100939.47;5054044;28;20043;-42
2023/04/28 07:15:47;;;;;;;34.65;18.27;;;;;;;8.63;100.00;100946.34;5053285;28;20443;-43
2023/04/28 07:18:12;;;;;;;33.45;18.95;;;;;;;8.76;100.00;100944.00;5066654;28;20044;-42
2023/04/28 07:20:38;;;;;;;39.22;19.63;;;;;;;8.83;100.00;100946.88;5065188;28;20560;-42
2023/04/28 07:23:03;;;;;;;37.38;20.27;;;;;;;8.79;100.00;100957.06;5058859;28;20107;-41
2023/04/28 07:25:28;;;;;;;34.95;19.58;;;;;;;8.71;100.00;100951.72;5068143;28;20029;-41
2023/04/28 07:27:54;;;;;;;40.08;20.70;;;;;;;8.85;100.00;100956.44;5063775;28;20115;-42
2023/04/28 07:30:20;;;;;;;47.65;20.92;;;;;;;9.03;100.00;100953.56;5062430;28;20021;-42
2023/04/28 07:32:45;;;;;;;44.08;22.50;;;;;;;9.13;100.00;100953.38;5063896;28;20038;-44
2023/04/28 07:35:10;;;;;;;51.67;24.33;;;;;;;9.11;100.00;100952.69;5062242;28;20016;-45
2023/04/28 07:37:36;;;;;;;44.92;23.55;;;;;;;9.35;100.00;100950.00;5058160;28;20028;-45
2023/04/28 07:40:02;;;;;;;50.95;23.88;;;;;;;9.33;100.00;100956.53;5066104;28;20111;-41
2023/04/28 07:42:27;;;;;;;50.90;26.10;;;;;;;9.24;100.00;100955.69;5060612;28;20051;-43
2023/04/28 07:44:53;;;;;;;53.83;24.92;;;;;;;9.29;100.00;100957.88;5062865;28;20025;-43
2023/04/28 07:47:18;;;;;;;51.90;25.98;;;;;;;9.32;100.00;100958.41;5061675;28;20386;-43
2023/04/28 07:49:43;;;;;;;55.40;27.13;;;;;;;9.27;100.00;100959.88;5059582;28;20033;-43
2023/04/28 07:52:10;;;;;;;59.20;29.05;;;;;;;9.31;100.00;100956.69;5064895;28;20041;-40
2023/04/28 07:54:36;;;;;;;57.22;28.02;;;;;;;9.29;100.00;100965.94;5061562;28;20097;-43
2023/04/28 07:57:04;;;;;;;68.47;31.33;;;;;;;9.33;100.00;100969.97;5047256;28;20098;-42
2023/04/28 07:59:32;;;;;;;71.03;31.33;;;;;;;9.32;100.00;100977.19;5056246;28;20498;-51
2023/04/28 08:01:57;;;;;;;73.65;32.38;;;;;;;9.41;100.00;100978.84;5058675;28;20551;-47
2023/04/28 08:04:23;;;;;;;75.38;33.65;;;;;;;9.37;100.00;100973.97;5061944;28;20099;-47
2023/04/28 08:06:48;;;;;;;79.47;35.63;;;;;;;9.40;100.00;100981.69;5065107;28;20373;-46
2023/04/28 08:09:13;;;;;;;84.30;37.65;;;;;;;9.51;100.00;100983.22;5060149;28;20067;-45
2023/04/28 08:11:39;;;;;;;84.65;37.15;;;;;;;9.62;100.00;100991.72;5061275;28;20044;-47
2023/04/28 08:14:04;;;;;;;86.40;36.97;;;;;;;9.69;100.00;100991.91;5061464;28;20064;-47
2023/04/28 08:16:30;;;;;;;95.30;42.22;;;;;;;9.76;100.00;100997.41;5050548;28;20070;-47
2023/04/28 08:18:56;;;;;;;99.28;41.40;;;;;;;9.82;100.00;100994.00;5062985;28;20032;-47
2023/04/28 08:21:21;;;;;;;111.05;46.47;;;;;;;9.85;100.00;100996.38;5059098;28;20025;-46
2023/04/28 08:23:47;;;;;;;109.07;46.05;;;;;;;9.89;100.00;100997.69;5061837;28;20485;-47
2023/04/28 08:26:12;;;;;;;111.93;46.72;;;;;;;9.93;100.00;100992.81;5061469;28;20024;-47
2023/04/28 08:28:38;;;;;;;116.07;48.15;;;;;;;10.10;100.00;100994.41;5061563;28;20025;-46
2023/04/28 08:31:05;;;;;;;114.38;48.58;;;;;;;10.36;100.00;100993.31;5057254;28;20052;-50
2023/04/28 08:33:30;;;;;;;110.70;47.97;;;;;;;10.31;100.00;100988.47;5056755;28;20364;-47
2023/04/28 08:35:56;;;;;;;123.43;50.72;;;;;;;10.27;100.00;100996.06;5067196;28;20383;-46
2023/04/28 08:38:22;;;;;;;129.40;52.70;;;;;;;10.29;100.00;100988.66;5063000;28;20457;-48
2023/04/28 08:40:48;;;;;;;125.30;53.67;;;;;;;10.46;100.00;100994.75;5067766;28;20025;-46
2023/04/28 08:43:15;;;;;;;133.38;56.20;;;;;;;10.40;100.00;100994.63;5067459;28;20017;-46
2023/04/28 08:45:41;;;;;;;137.48;54.35;;;;;;;10.55;100.00;100998.22;5061483;28;20016;-48
2023/04/28 08:48:28;;;;;;;133.27;55.25;;;;;;;10.64;100.00;100991.78;5065265;28;20617;-47
2023/04/28 08:50:54;;;;;;;132.88;55.05;;;;;;;10.64;100.00;100990.97;5064604;28;20053;-49
2023/04/28 08:53:24;;;;;;;138.15;56.67;;;;;;;10.69;100.00;100994.78;5066963;28;20418;-46
2023/04/28 08:55:55;;;;;;;139.75;55.80;;;;;;;10.76;100.00;100990.34;5065033;28;20059;-47
2023/04/28 08:58:24;;;;;;;148.88;56.65;;;;;;;10.83;100.00;101000.41;5068593;28;20040;-47
2023/04/28 09:00:53;;;;;;;150.38;60.78;;;;;;;10.87;100.00;100996.31;5066998;28;20102;-49
2023/04/28 09:03:18;;;;;;;141.23;57.08;;;;;;;10.94;100.00;100990.03;5062887;28;20458;-49
2023/04/28 09:05:44;;;;;;;140.60;56.53;;;;;;;11.00;100.00;100991.16;5057028;28;20086;-46
2023/04/28 09:08:11;;;;;;;143.75;56.83;;;;;;;10.82;100.00;100988.81;5066041;28;20097;-46
2023/04/28 09:10:37;;;;;;;149.57;57.88;;;;;;;10.92;100.00;100989.38;5068112;28;20116;-50
2023/04/28 09:13:03;;;;;;;136.90;56.83;;;;;;;11.04;100.00;100980.91;5069018;28;20051;-50
2023/04/28 09:15:41;;;;;;;150.55;60.10;;;;;;;11.14;100.00;100985.00;5068338;28;20637;-46
2023/04/28 09:18:07;;;;;;;130.55;54.38;;;;;;;11.25;100.00;100982.91;5062979;28;20064;-48
2023/04/28 09:20:34;;;;;;;127.65;53.28;;;;;;;11.33;100.00;100980.94;5068296;28;20119;-48
2023/04/28 09:23:13;;;;;;;125.18;50.50;;;;;;;11.49;100.00;100979.13;5069572;28;20058;-48
2023/04/28 09:25:38;;;;;;;111.97;45.08;;;;;;;11.53;100.00;100983.97;5066871;28;20518;-48
2023/04/28 09:28:22;;;;;;;97.53;42.17;;;;;;;11.52;100.00;100978.75;5070894;28;20119;-47
2023/04/28 09:30:47;;;;;;;100.68;42.08;;;;;;;11.53;100.00;100978.56;5055544;28;20051;-45
2023/04/28 09:33:13;;;;;;;100.65;39.28;;;;;;;11.66;100.00;100975.19;5065785;28;20033;-46
2023/04/28 09:35:44;;;;;;;89.82;39.63;;;;;;;11.68;100.00;100973.16;5071224;28;20058;-47
2023/04/28 09:38:09;;;;;;;82.45;36.20;;;;;;;11.79;100.00;100967.28;5044531;28;20037;-49
2023/04/28 09:40:54;;;;;;;87.90;37.55;;;;;;;11.84;100.00;100966.75;5068118;28;20462;-51
2023/04/28 09:43:28;;;;;;;79.40;35.55;;;;;;;11.91;100.00;100966.88;5070447;28;20025;-47
2023/04/28 09:45:55;;;;;;;77.72;32.40;;;;;;;11.90;100.00;100974.13;5066746;28;20036;-47
2023/04/28 09:48:39;;;;;;;71.57;31.80;;;;;;;11.82;100.00;100975.03;5063410;28;20065;-47
2023/04/28 09:51:06;;;;;;;73.15;29.10;;;;;;;11.85;100.00;100974.66;5063972;28;20154;-49
2023/04/28 09:53:33;;;;;;;67.95;25.08;;;;;;;11.86;100.00;100965.56;5062699;28;20044;-50
2023/04/28 09:56:01;;;;;;;59.60;20.73;;;;;;;11.81;100.00;100980.59;5069092;28;20037;-47
2023/04/28 09:58:27;;;;;;;61.60;20.27;;;;;;;11.84;100.00;100991.00;5069363;28;20381;-49
2023/04/28 10:00:57;;;;;;;67.68;20.13;;;;;;;11.85;100.00;100987.31;5071215;28;20509;-48
2023/04/28 10:03:25;;;;;;;79.25;20.67;;;;;;;11.77;100.00;100992.78;5054308;28;20032;-50
2023/04/28 10:05:52;;;;;;;76.78;18.40;;;;;;;11.77;100.00;100988.25;5057998;28;20041;-47
2023/04/28 10:08:18;;;;;;;72.47;19.80;;;;;;;11.79;100.00;100994.25;5041801;28;20123;-47
2023/04/28 10:10:47;;;;;;;90.18;21.73;;;;;;;11.70;100.00;100995.38;5071073;28;20033;-48
2023/04/28 10:13:14;;;;;;;87.13;20.45;;;;;;;11.65;100.00;100995.94;5050035;28;20052;-51
2023/04/28 10:15:40;;;;;;;88.97;19.15;;;;;;;11.44;100.00;101001.22;5052036;28;20412;-48
2023/04/28 10:18:05;;;;;;;89.53;20.70;;;;;;;11.42;100.00;101006.78;5054499;28;20144;-50
2023/04/28 10:20:32;;;;;;;92.05;21.58;;;;;;;11.41;100.00;101015.06;5061193;28;20103;-47
2023/04/28 10:23:32;;;;;;;107.85;24.25;;;;;;;11.41;100.00;101012.38;5067464;28;20029;-48
2023/04/28 10:25:58;;;;;;;121.68;26.35;;;;;;;11.39;100.00;101022.50;5055435;28;20028;-46
2023/04/28 10:28:25;;;;;;;111.60;26.25;;;;;;;11.35;100.00;101015.81;5058521;28;20108;-49
2023/04/28 10:31:10;;;;;;;103.85;24.67;;;;;;;11.39;100.00;101033.28;5049851;28;20112;-50
2023/04/28 10:33:37;;;;;;;88.68;22.90;;;;;;;11.41;100.00;101031.22;5051006;28;20021;-48
2023/04/28 10:36:03;;;;;;;88.47;23.10;;;;;;;11.39;100.00;101028.72;5055178;28;20028;-48
2023/04/28 10:38:28;;;;;;;104.00;24.63;;;;;;;11.33;100.00;101023.22;5070849;28;20019;-49
2023/04/28 10:40:54;;;;;;;103.50;24.92;;;;;;;11.41;100.00;101023.16;5070895;28;20029;-47
2023/04/28 10:43:31;;;;;;;89.57;23.45;;;;;;;11.51;100.00;101028.28;5069852;28;20032;-47
2023/04/28 10:46:00;;;;;;;59.42;17.20;;;;;;;11.40;100.00;101035.78;5071073;28;20021;-47
2023/04/28 10:48:25;;;;;;;67.05;18.90;;;;;;;11.46;100.00;101033.38;5069839;28;20044;-46
2023/04/28 10:51:02;;;;;;;55.95;14.02;;;;;;;11.42;100.00;101027.50;5071185;28;20674;-47
2023/04/28 10:53:50;;;;;;;49.47;14.18;;;;;;;11.42;100.00;101038.28;5071208;28;20052;-46
2023/04/28 10:56:20;;;;;;;37.95;12.90;;;;;;;11.46;100.00;101031.53;5071467;28;20421;-48
2023/04/28 10:58:49;;;;;;;37.80;12.55;;;;;;;11.52;100.00;101027.25;5070704;28;20048;-49
2023/04/28 11:01:17;;;;;;;27.73;10.55;;;;;;;11.45;100.00;101027.13;5070952;28;20062;-49
2023/04/28 11:03:42;;;;;;;;;;;;;;;11.47;100.00;101027.81;5071297;28;20029;-50
2023/04/28 11:06:31;;;;;;;31.63;10.20;;;;;;;11.48;100.00;101029.50;5070633;28;19970;-46
2023/04/28 11:08:59;;;;;;;33.38;9.65;;;;;;;11.42;100.00;101039.13;5054178;28;20275;-47
2023/04/28 11:11:33;;;;;;;24.92;8.73;;;;;;;11.34;100.00;101024.91;5069829;28;20028;-48